Liberty Highlands, Alabama
Current Conditions -  °F | °C
As of 5:53 PM on Friday 24 Oct 2014 (Local Time) from KBHM Reporting Station
Few Clouds Few Clouds  
Wind Chill: 66°   Ceiling: Unl
Heat Index: 66°   Visibility: 10mi
Dew Point: 38°   Wind: 7mph
Humidity: 36%   Direction: 340°NNW
Pressure: 30.06"   Gusts: NA
Location:  33.5393°N, 86.6626°W
Report Text: KBHM 242253Z 34006KT 10SM FEW250 19/03 A3006 RMK AO2 SLP176 T01890033
Loading
Personal Weather Stations






























Interactive Weather Map
Tropical Storm Tracking
New forecast layout! Learn more

10-Day Weather Forecast

Advertisements
Track Severe Weather on mobile